CYKQ

Waskaganish Airport

Code ICAO CYKQ
Code IATA YKQ
Nom Waskaganish Airport
Emplacement Waskaganish, Quebec, CA
Élévation 79 pieds / 24.1 mètres
Latitude 51.47333333
Longitude -78.75833333
METAR CYKQ 232100Z 08009G17KT 040V100 15SM FEW160 BKN230 15/M00 A3009 RMK AS1CS7 AS TR LAST STFD OBS/NEXT 241300UTC SLP192
Informations extras Afficher cartes et CFS
Afficher NOTAMS
Piste Longueur Largeur Surface Élévation
06 3511 ft 100 ft GRAVEL 78 ft
24 3511 ft 100 ft GRAVEL 77 ft